createdAt,value
2022-09-26T00:04:36.618Z,4.97
2022-09-26T00:09:37.865Z,5.72
2022-09-26T00:14:39.106Z,5.63
2022-09-26T00:19:40.415Z,4.72
2022-09-26T00:24:41.687Z,4.65
2022-09-26T00:29:42.904Z,4.43
2022-09-26T00:34:44.139Z,4.45
2022-09-26T00:39:45.379Z,3.87
2022-09-26T00:44:50.394Z,3.65
2022-09-26T00:49:54.996Z,3.88
2022-09-26T00:54:58.285Z,3.67
2022-09-26T01:00:02.211Z,3.65
2022-09-26T01:05:05.006Z,3.17
2022-09-26T01:10:06.709Z,3.47
2022-09-26T01:15:09.023Z,3.60
2022-09-26T01:20:39.741Z,4.07
2022-09-26T01:25:47.046Z,4.00
2022-09-26T01:30:52.574Z,3.75
2022-09-26T01:36:14.214Z,4.00
2022-09-26T01:41:34.019Z,4.70
2022-09-26T01:46:37.756Z,4.60
2022-09-26T01:51:49.591Z,5.57
2022-09-26T01:56:51.916Z,6.53
2022-09-26T02:01:55.857Z,6.10
2022-09-26T02:06:59.779Z,6.55
2022-09-26T02:12:02.903Z,7.03
2022-09-26T02:17:16.779Z,5.90
2022-09-26T02:22:18.791Z,6.20
2022-09-26T02:27:20.162Z,5.77
2022-09-26T02:32:29.788Z,5.78
2022-09-26T02:37:32.170Z,5.27
2022-09-26T02:42:36.453Z,4.55
2022-09-26T02:47:57.509Z,4.55
2022-09-26T02:52:58.716Z,7.17
2022-09-26T02:58:06.175Z,5.00
2022-09-26T03:03:20.221Z,5.50
2022-09-26T03:08:25.803Z,4.90
2022-09-26T03:13:27.915Z,5.13
2022-09-26T03:18:32.477Z,4.50
2022-09-26T03:23:34.193Z,4.95
2022-09-26T03:28:37.944Z,5.80
2022-09-26T03:33:40.404Z,5.18
2022-09-26T03:38:41.810Z,4.63
2022-09-26T03:43:45.672Z,5.57
2022-09-26T03:48:46.992Z,4.97
2022-09-26T03:53:48.234Z,4.77
2022-09-26T03:58:49.637Z,4.13
2022-09-26T04:03:51.432Z,4.53
2022-09-26T04:08:53.162Z,3.73
2022-09-26T04:13:54.560Z,4.38
2022-09-26T04:18:57.221Z,4.40
2022-09-26T04:23:58.485Z,4.38
2022-09-26T04:28:59.712Z,4.20
2022-09-26T04:34:00.941Z,4.13
2022-09-26T04:39:02.302Z,4.07
2022-09-26T04:44:03.594Z,4.20
2022-09-26T04:49:05.912Z,4.15
2022-09-26T04:54:08.511Z,3.95
2022-09-26T04:59:09.751Z,3.53
2022-09-26T05:04:12.629Z,4.32
2022-09-26T05:09:13.974Z,3.50
2022-09-26T05:14:15.277Z,4.22
2022-09-26T05:19:16.654Z,4.80
2022-09-26T05:24:36.759Z,4.27
2022-09-26T05:29:38.028Z,3.70
2022-09-26T05:34:39.736Z,4.60
2022-09-26T05:39:59.575Z,3.67
2022-09-26T05:45:03.093Z,4.05
2022-09-26T05:50:09.698Z,3.97
2022-09-26T05:55:11.867Z,3.72
2022-09-26T06:00:14.133Z,4.33
2022-09-26T06:05:15.671Z,3.47
2022-09-26T06:10:16.949Z,4.53
2022-09-26T06:15:18.259Z,3.60
2022-09-26T06:20:19.511Z,3.90
2022-09-26T06:25:20.982Z,4.10
2022-09-26T06:30:23.421Z,3.90
2022-09-26T06:35:25.082Z,3.70
2022-09-26T06:40:26.407Z,3.80
2022-09-26T06:45:27.743Z,3.20
2022-09-26T06:50:28.988Z,3.90
2022-09-26T06:55:30.234Z,3.30
2022-09-26T07:00:35.425Z,3.65
2022-09-26T07:05:36.770Z,3.60
2022-09-26T07:10:38.415Z,4.03
2022-09-26T07:15:40.045Z,3.20
2022-09-26T07:20:42.677Z,3.53
2022-09-26T07:25:47.300Z,3.45
2022-09-26T07:30:48.742Z,3.80
2022-09-26T07:35:50.057Z,3.55
2022-09-26T07:40:54.358Z,2.73
2022-09-26T07:46:14.494Z,2.60
2022-09-26T07:51:16.034Z,2.70
2022-09-26T07:56:17.315Z,2.20
2022-09-26T08:01:20.877Z,3.75
2022-09-26T08:06:22.223Z,1.80
2022-09-26T08:11:24.001Z,3.70
2022-09-26T08:16:25.764Z,2.30
2022-09-26T08:21:27.077Z,1.77
2022-09-26T08:26:28.362Z,2.63
2022-09-26T08:31:29.668Z,2.55
2022-09-26T08:36:32.785Z,2.20
2022-09-26T08:41:37.034Z,2.00
2022-09-26T08:46:52.546Z,2.30
2022-09-26T08:51:55.573Z,2.50
2022-09-26T08:56:58.936Z,2.38
2022-09-26T09:02:02.250Z,2.40
2022-09-26T09:07:23.668Z,2.70
2022-09-26T09:12:45.259Z,1.67
2022-09-26T09:17:58.504Z,2.40
2022-09-26T09:23:06.400Z,1.83
2022-09-26T09:28:10.771Z,2.13
2022-09-26T09:33:12.010Z,2.00
2022-09-26T09:38:18.045Z,1.50
2022-09-26T09:43:26.661Z,1.40
2022-09-26T09:48:28.081Z,1.52
2022-09-26T09:53:32.047Z,3.30
2022-09-26T09:58:33.323Z,1.60
2022-09-26T10:03:49.457Z,2.53
2022-09-26T10:08:50.834Z,1.60
2022-09-26T10:13:56.775Z,2.40
2022-09-26T10:19:04.070Z,2.28
2022-09-26T10:24:05.866Z,1.53
2022-09-26T10:29:21.228Z,1.50
2022-09-26T10:34:27.880Z,1.70
2022-09-26T10:39:48.885Z,1.92
2022-09-26T10:44:50.686Z,1.47
2022-09-26T10:49:56.039Z,1.70
2022-09-26T10:55:00.028Z,1.73
2022-09-26T11:00:01.658Z,2.03
2022-09-26T11:05:23.186Z,1.60
2022-09-26T11:10:25.595Z,1.40
2022-09-26T11:15:28.682Z,1.40
2022-09-26T11:20:52.524Z,1.80
2022-09-26T11:26:02.565Z,1.80
2022-09-26T11:31:10.306Z,1.70
2022-09-26T11:36:18.009Z,1.57
2022-09-26T11:41:38.063Z,1.95
2022-09-26T11:46:47.366Z,1.85
2022-09-26T11:51:49.835Z,1.40
2022-09-26T11:56:51.020Z,1.30
2022-09-26T12:01:55.910Z,1.23
2022-09-26T12:07:02.326Z,1.00
2022-09-26T12:12:24.157Z,1.17
2022-09-26T12:17:52.445Z,0.93
2022-09-26T12:22:53.715Z,1.03
2022-09-26T12:28:08.446Z,1.43
2022-09-26T12:33:21.780Z,1.85
2022-09-26T12:38:42.321Z,1.23
2022-09-26T12:44:07.976Z,1.57
2022-09-26T12:49:28.004Z,2.08
2022-09-26T12:54:41.997Z,1.70
2022-09-26T12:59:52.435Z,2.60
2022-09-26T13:04:56.425Z,1.45
2022-09-26T13:10:04.854Z,1.77
2022-09-26T13:15:24.640Z,1.53
2022-09-26T13:20:33.296Z,1.80
2022-09-26T13:25:35.653Z,1.63
2022-09-26T13:30:39.551Z,1.40
2022-09-26T13:35:43.566Z,1.20
2022-09-26T13:40:44.971Z,1.40
2022-09-26T13:45:55.964Z,1.48
2022-09-26T13:51:06.314Z,1.30
2022-09-26T13:56:27.618Z,1.38
2022-09-26T14:01:29.191Z,1.20
2022-09-26T14:06:30.878Z,1.20
2022-09-26T14:11:45.060Z,1.10
2022-09-26T14:16:51.017Z,1.13
2022-09-26T14:21:58.277Z,1.10
2022-09-26T14:27:11.750Z,1.00
2022-09-26T14:32:16.129Z,1.30
2022-09-26T14:37:20.373Z,1.10
2022-09-26T14:42:23.792Z,2.03
2022-09-26T14:47:26.453Z,2.28
2022-09-26T14:52:27.855Z,1.30
2022-09-26T14:57:31.418Z,0.90
2022-09-26T15:02:39.890Z,1.83
2022-09-26T15:07:43.339Z,0.90
2022-09-26T15:12:48.025Z,1.30
2022-09-26T15:17:52.904Z,1.83
2022-09-26T15:22:57.189Z,1.15
2022-09-26T15:27:59.071Z,0.90
2022-09-26T15:33:04.237Z,1.00
2022-09-26T15:38:10.127Z,1.48
2022-09-26T15:43:20.291Z,1.73
2022-09-26T15:48:24.550Z,1.37
2022-09-26T15:53:25.862Z,1.37
2022-09-26T15:58:39.453Z,1.10
2022-09-26T16:04:00.968Z,2.30
2022-09-26T16:09:08.279Z,1.40
2022-09-26T16:14:16.754Z,1.77
2022-09-26T16:19:28.657Z,1.20
2022-09-26T16:24:34.418Z,1.40
2022-09-26T16:29:35.757Z,1.50
2022-09-26T16:34:37.069Z,1.60
2022-09-26T16:39:38.920Z,1.40
2022-09-26T16:44:41.268Z,1.40
2022-09-26T16:49:46.000Z,1.23
2022-09-26T16:54:48.670Z,1.20
2022-09-26T16:59:50.828Z,1.00
2022-09-26T17:04:54.029Z,1.30
2022-09-26T17:09:55.316Z,1.20
2022-09-26T17:14:56.830Z,3.00
2022-09-26T17:19:59.768Z,1.92
2022-09-26T17:25:01.164Z,1.40
2022-09-26T17:30:03.222Z,2.10
2022-09-26T17:35:12.263Z,2.30
2022-09-26T17:40:17.302Z,1.85
2022-09-26T17:45:19.339Z,2.10
2022-09-26T17:50:25.243Z,2.20
2022-09-26T17:55:27.454Z,2.53
2022-09-26T18:00:31.854Z,1.80
2022-09-26T18:05:35.906Z,1.93
2022-09-26T18:10:39.444Z,1.42
2022-09-26T18:15:41.280Z,2.60
2022-09-26T18:20:43.104Z,1.90
2022-09-26T18:25:47.114Z,1.50
2022-09-26T18:30:51.550Z,1.43
2022-09-26T18:35:55.917Z,1.77
2022-09-26T18:40:58.567Z,1.75
2022-09-26T18:46:00.399Z,1.30
2022-09-26T18:51:01.988Z,1.57
2022-09-26T18:56:25.364Z,1.45
2022-09-26T19:01:29.794Z,1.38
2022-09-26T19:06:38.065Z,1.40
2022-09-26T19:11:39.354Z,1.20
2022-09-26T19:16:41.438Z,1.42
2022-09-26T19:21:46.356Z,1.80
2022-09-26T19:26:55.366Z,1.60
2022-09-26T19:31:56.724Z,1.65
2022-09-26T19:36:58.115Z,3.00
2022-09-26T19:41:59.488Z,1.70
2022-09-26T19:47:01.974Z,1.52
2022-09-26T19:52:03.268Z,1.80
2022-09-26T19:57:09.827Z,1.85
2022-09-26T20:02:17.683Z,2.00
2022-09-26T20:07:19.701Z,2.13
2022-09-26T20:12:20.953Z,2.00
2022-09-26T20:17:26.398Z,2.05
2022-09-26T20:22:27.765Z,2.00
2022-09-26T20:27:29.277Z,2.47
2022-09-26T20:32:30.558Z,2.08
2022-09-26T20:37:35.091Z,2.60
2022-09-26T20:42:37.858Z,2.10
2022-09-26T20:47:40.323Z,2.15
2022-09-26T20:52:42.589Z,2.80
2022-09-26T20:57:44.210Z,2.03
2022-09-26T21:02:46.644Z,2.28
2022-09-26T21:07:48.897Z,1.73
2022-09-26T21:12:50.565Z,1.90
2022-09-26T21:17:52.476Z,1.60
2022-09-26T21:22:54.738Z,1.40
2022-09-26T21:28:01.313Z,1.33
2022-09-26T21:33:02.604Z,1.30
2022-09-26T21:38:04.149Z,1.20
2022-09-26T21:43:11.421Z,1.48
2022-09-26T21:48:13.550Z,1.40
2022-09-26T21:53:24.297Z,0.80
2022-09-26T21:58:31.107Z,0.93
2022-09-26T22:03:32.593Z,0.90
2022-09-26T22:08:33.863Z,0.82
2022-09-26T22:13:35.755Z,0.77
2022-09-26T22:18:38.897Z,0.60
2022-09-26T22:23:40.246Z,0.60
2022-09-26T22:28:41.506Z,0.70
2022-09-26T22:33:42.800Z,1.33
2022-09-26T22:38:45.007Z,0.73
2022-09-26T22:43:46.628Z,0.80
2022-09-26T22:48:47.926Z,0.73
2022-09-26T22:53:49.197Z,0.88
2022-09-26T22:58:54.314Z,0.80
2022-09-26T23:03:57.238Z,0.77
2022-09-26T23:08:58.934Z,0.70
2022-09-26T23:14:00.244Z,0.60
2022-09-26T23:19:01.625Z,0.70
2022-09-26T23:24:05.820Z,0.80
2022-09-26T23:29:07.092Z,0.73
2022-09-26T23:34:08.353Z,0.73
2022-09-26T23:39:09.752Z,0.60
2022-09-26T23:44:11.063Z,0.60
2022-09-26T23:49:12.421Z,0.40
2022-09-26T23:54:14.132Z,0.50
2022-09-26T23:59:15.599Z,0.60
